Список аэропортов
Фактическая погода:

21 августа, 07:00
Температура: +16°C (+15.7*)
Ветер: юго-западный 3 м/с
Давление: *760 мм
неб. облачность
900 м
Время (МСК)Темп. СВетерВлажностьДавлениеОблачностьОсадки
03:00+14ЮЗ, 2 м/с95%1014 гПаоблачно
04:00+14ЮЗ, 2 м/с96%1014 гПаоблачно
05:00+13ЮЗ, 2 м/с98%1014 гПаоблачно
06:00+13ЮЗ, 2 м/с98%1014 гПас прояснениями
07:00+15ЮЗ, 2 м/с94%1014 гПаоблачно
08:00+16ЮЗ, 3 м/с85%1014 гПас прояснениями
09:00+16ЮЗ, 3 м/с85%1014 гПаоблачно
10:00+16ЮЗ, 3 м/с92%1015 гПаоблачносл. дождь
11:00+16ЮЗ, 3 м/с92%1015 гПаоблачносл. дождь
12:00+18ЮЗ, 3 м/с79%1015 гПаоблачно
13:00+18ЮЗ, 2 м/с78%1015 гПаоблачно
14:00+18ЮЗ, 2 м/с80%1015 гПаоблачно
15:00+18ЮЗ, 2 м/с80%1015 гПаоблачно
16:00+17Ю, 1 м/с92%1015 гПаоблачносл. дождь
17:00+16Ю, 1 м/с95%1015 гПаоблачносл. дождь
18:00+16Ю, 1 м/с95%1015 гПаоблачносл. дождь
19:00+16ЮВ, 1 м/с97%1015 гПаоблачносл. дождь
20:00+16В, 1 м/с99%1015 гПаоблачно
21:00+15ЮВ, 1 м/с99%1015 гПаоблачно
22:00+14ЮВ, 1 м/с99%1014 гПамалооблачно
23:00+14ЮВ, 2 м/с97%1014 гПас прояснениями
22 августа
00:00+14В, 2 м/с97%1013 гПас прояснениями
01:00+13В, 2 м/с99%1013 гПамалооблачно
02:00+12В, 2 м/с99%1012 гПамалооблачно
03:00+12ЮВ, 1 м/с99%1012 гПас прояснениями
04:00+11СВ, 1 м/с100%1012 гПас прояснениями
05:00+11В, 1 м/с100%1012 гПас прояснениями
06:00+12ЮВ, 2 м/с99%1012 гПаоблачно
07:00+14Ю, 2 м/с98%1012 гПас прояснениями
08:00+15ЮЗ, 2 м/с95%1012 гПаоблачно
09:00+17ЮЗ, 2 м/с89%1012 гПаоблачно
10:00+19ЮЗ, 2 м/с79%1013 гПас прояснениями
11:00+21ЮЗ, 1 м/с70%1013 гПаоблачно
12:00+22ЮЗ, 1 м/с67%1013 гПаоблачно
13:00+22ЮЗ, 1 м/с66%1013 гПаоблачно
14:00+24Ю, 1 м/с62%1013 гПаоблачно
15:00+25Штиль 59%1012 гПаоблачно
16:00+25ЮВ, 1 м/с58%1012 гПаоблачно
17:00+26ЮВ, 1 м/с58%1011 гПаоблачно
18:00+23ЮВ, 2 м/с76%1011 гПаоблачнодождь
19:00+22ЮВ, 2 м/с83%1010 гПаоблачносл. дождь
20:00+20ЮВ, 2 м/с86%1010 гПаоблачно
21:00+20Ю, 3 м/с85%1010 гПаоблачно
22:00+19Ю, 2 м/с87%1010 гПаоблачно
23:00+18Ю, 2 м/с87%1010 гПаоблачно
23 августа
00:00+17Ю, 1 м/с93%1010 гПаоблачно
01:00+16Штиль 99%1010 гПаоблачно
02:00+14ЮВ, 1 м/с100%1010 гПаоблачно
03:00+15ЮВ, 1 м/с100%1010 гПаоблачно